Time;durP1;ratioP1;P1;durP2;ratioP2;P2;SDS_P1;SDS_P2;PMS_P1;PMS_P2;Temp;Humidity;BMP_temperature;BMP_pressure;BME280_temperature;BME280_humidity;BME280_pressure;Samples;Min_cycle;Max_cycle;Signal;HPM_P1;HPM_P2
2021/07/21 00:01:22;;;;;;;;;;;20.30;66.80;;;;;;484578;245;1159;-45
2021/07/21 00:03:23;;;;;;;;;;;20.30;66.80;;;;;;484955;245;2116;-45
2021/07/21 00:05:25;;;;;;;;;;;20.30;66.80;;;;;;485061;245;1247;-45
2021/07/21 00:07:26;;;;;;;;;;;20.40;66.80;;;;;;484564;245;1215;-45
2021/07/21 00:09:28;;;;;;;;;;;20.30;66.70;;;;;;484683;245;1081;-45
2021/07/21 00:13:48;;;;;;;;;;;20.40;66.80;;;;;;484844;246;1038;-45
2021/07/21 00:15:57;;;;;;;;;;;20.30;66.80;;;;;;484757;245;1344;-45
2021/07/21 00:18:00;;;;;;;;;;;20.30;66.80;;;;;;484843;246;1799;-45
2021/07/21 00:20:07;;;;;;;;;;;20.40;66.80;;;;;;484662;245;2600;-45
2021/07/21 00:22:07;;;;;;;;;;;20.40;66.70;;;;;;484606;245;1389;-45
2021/07/21 00:24:09;;;;;;;;;;;20.30;66.80;;;;;;484671;245;2191;-45
2021/07/21 00:26:10;;;;;;;;;;;20.30;66.90;;;;;;484702;245;1075;-45
2021/07/21 00:28:11;;;;;;;;;;;20.30;66.90;;;;;;485115;245;1052;-45
2021/07/21 00:30:13;;;;;;;;;;;20.40;66.80;;;;;;484634;245;1461;-45
2021/07/21 00:32:14;;;;;;;;;;;20.30;66.90;;;;;;484580;245;1173;-45
2021/07/21 00:34:15;;;;;;;;;;;20.30;66.90;;;;;;484602;245;1112;-45
2021/07/21 00:36:17;;;;;;;;;;;20.30;66.80;;;;;;484556;245;1067;-45
2021/07/21 00:38:18;;;;;;;;;;;20.30;66.80;;;;;;484635;245;1107;-45
2021/07/21 00:40:19;;;;;;;;;;;20.30;66.80;;;;;;485095;245;1059;-45
2021/07/21 00:42:21;;;;;;;;;;;20.30;66.70;;;;;;484630;245;1071;-45
2021/07/21 00:44:22;;;;;;;;;;;20.40;66.80;;;;;;485158;245;2152;-45
2021/07/21 00:46:23;;;;;;;;;;;20.30;66.70;;;;;;484663;245;1200;-45
2021/07/21 00:48:25;;;;;;;;;;;20.40;66.80;;;;;;484602;245;1111;-45
2021/07/21 00:50:26;;;;;;;;;;;20.40;66.70;;;;;;484956;245;1116;-45
2021/07/21 00:52:27;;;;;;;;;;;20.30;66.60;;;;;;484825;245;1110;-45
2021/07/21 00:54:29;;;;;;;;;;;20.40;66.70;;;;;;485149;245;1022;-45
2021/07/21 00:56:30;;;;;;;;;;;20.30;66.70;;;;;;484929;245;1304;-44
2021/07/21 00:58:31;;;;;;;;;;;20.40;66.70;;;;;;484662;245;1075;-45
2021/07/21 01:00:32;;;;;;;;;;;20.40;66.60;;;;;;484810;245;1271;-45
2021/07/21 01:02:34;;;;;;;;;;;20.40;66.70;;;;;;484762;245;1377;-45
2021/07/21 01:04:37;;;;;;;;;;;20.40;66.80;;;;;;485100;245;2116;-45
2021/07/21 01:06:36;;;;;;;;;;;20.40;66.80;;;;;;484547;246;2486;-45
2021/07/21 01:08:38;;;;;;;;;;;20.30;66.70;;;;;;484699;245;1106;-45
2021/07/21 01:10:39;;;;;;;;;;;20.30;66.80;;;;;;484652;245;1465;-45
2021/07/21 01:12:40;;;;;;;;;;;20.40;66.90;;;;;;484663;245;1177;-45
2021/07/21 01:14:42;;;;;;;;;;;20.30;66.90;;;;;;484742;245;1230;-45
2021/07/21 01:16:43;;;;;;;;;;;20.30;66.80;;;;;;484490;245;1610;-45
2021/07/21 01:18:44;;;;;;;;;;;20.30;66.90;;;;;;484784;245;1111;-45
2021/07/21 01:20:46;;;;;;;;;;;20.30;66.80;;;;;;484682;245;1262;-45
2021/07/21 01:22:47;;;;;;;;;;;20.30;66.80;;;;;;484641;245;2183;-45
2021/07/21 01:24:48;;;;;;;;;;;20.30;66.90;;;;;;484789;245;1278;-45
2021/07/21 01:26:50;;;;;;;;;;;20.30;66.90;;;;;;484554;245;1199;-45
2021/07/21 01:28:51;;;;;;;;;;;20.30;66.90;;;;;;484688;245;1052;-45
2021/07/21 01:30:52;;;;;;;;;;;20.30;66.90;;;;;;484927;245;1225;-45
2021/07/21 01:32:54;;;;;;;;;;;20.30;66.90;;;;;;484603;245;1084;-45
2021/07/21 01:34:55;;;;;;;;;;;20.30;66.80;;;;;;485088;245;1034;-45
2021/07/21 01:36:57;;;;;;;;;;;20.30;66.90;;;;;;484714;245;1381;-45
2021/07/21 01:39:03;;;;;;;;;;;20.30;66.80;;;;;;484641;245;1126;-45
2021/07/21 01:40:59;;;;;;;;;;;20.40;66.80;;;;;;484826;246;1368;-45
2021/07/21 01:43:01;;;;;;;;;;;20.30;66.80;;;;;;484694;245;2203;-45
2021/07/21 01:45:02;;;;;;;;;;;20.30;66.80;;;;;;484806;245;1107;-45
2021/07/21 01:47:03;;;;;;;;;;;20.30;66.80;;;;;;484708;245;1517;-45
2021/07/21 01:49:05;;;;;;;;;;;20.30;66.90;;;;;;484607;245;1181;-45
2021/07/21 01:51:06;;;;;;;;;;;20.30;66.90;;;;;;484930;245;1234;-45
2021/07/21 01:53:07;;;;;;;;;;;20.30;66.70;;;;;;484662;245;1095;-45
2021/07/21 01:55:09;;;;;;;;;;;20.30;66.70;;;;;;484691;245;1094;-45
2021/07/21 01:57:10;;;;;;;;;;;20.40;66.80;;;;;;484819;245;1331;-45
2021/07/21 01:59:11;;;;;;;;;;;20.30;66.80;;;;;;484517;245;1086;-45
2021/07/21 02:01:13;;;;;;;;;;;20.40;66.80;;;;;;484641;245;1263;-45
2021/07/21 02:03:14;;;;;;;;;;;20.40;66.70;;;;;;484643;245;2180;-45
2021/07/21 02:05:15;;;;;;;;;;;20.40;66.60;;;;;;485095;245;1071;-45
2021/07/21 02:07:17;;;;;;;;;;;20.40;66.70;;;;;;484555;245;1547;-45
2021/07/21 02:09:18;;;;;;;;;;;20.40;66.70;;;;;;484672;245;1420;-45
2021/07/21 02:11:19;;;;;;;;;;;20.30;66.80;;;;;;484515;245;1197;-45
2021/07/21 02:13:21;;;;;;;;;;;20.30;66.70;;;;;;484566;245;1070;-45
2021/07/21 02:15:22;;;;;;;;;;;20.40;66.80;;;;;;485132;245;1060;-45
2021/07/21 02:17:23;;;;;;;;;;;20.30;66.80;;;;;;484594;245;1215;-45
2021/07/21 02:19:25;;;;;;;;;;;20.30;66.80;;;;;;485144;245;1084;-45
2021/07/21 02:21:26;;;;;;;;;;;20.30;66.80;;;;;;484758;245;1219;-44
2021/07/21 02:23:27;;;;;;;;;;;20.40;66.80;;;;;;485009;245;2148;-45
2021/07/21 02:25:28;;;;;;;;;;;20.40;66.70;;;;;;485115;245;1061;-45
2021/07/21 02:27:30;;;;;;;;;;;20.30;66.60;;;;;;485044;245;1225;-45
2021/07/21 02:29:31;;;;;;;;;;;20.40;66.70;;;;;;485081;245;1144;-45
2021/07/21 02:31:32;;;;;;;;;;;20.30;66.70;;;;;;484631;245;1579;-45
2021/07/21 02:33:34;;;;;;;;;;;20.40;66.80;;;;;;485099;245;1264;-45
2021/07/21 02:35:35;;;;;;;;;;;20.30;66.80;;;;;;485116;245;1080;-45
2021/07/21 02:37:36;;;;;;;;;;;20.30;66.80;;;;;;484803;245;1171;-45
2021/07/21 02:39:38;;;;;;;;;;;20.30;66.80;;;;;;484754;245;1037;-45
2021/07/21 02:41:42;;;;;;;;;;;20.40;66.80;;;;;;485068;245;1152;-45
2021/07/21 02:43:40;;;;;;;;;;;20.30;66.90;;;;;;484571;246;2156;-45
2021/07/21 02:45:42;;;;;;;;;;;20.30;66.80;;;;;;484905;245;1655;-45
2021/07/21 02:47:43;;;;;;;;;;;20.30;66.80;;;;;;484618;245;1284;-45
2021/07/21 02:49:44;;;;;;;;;;;20.30;66.80;;;;;;485096;245;1100;-45
2021/07/21 02:51:46;;;;;;;;;;;20.30;66.90;;;;;;484576;245;1120;-45
2021/07/21 02:53:47;;;;;;;;;;;20.30;66.80;;;;;;484689;245;1209;-45
2021/07/21 02:55:48;;;;;;;;;;;20.30;66.80;;;;;;485079;245;1426;-45
2021/07/21 02:57:50;;;;;;;;;;;20.30;66.80;;;;;;484699;245;1162;-45
2021/07/21 02:59:51;;;;;;;;;;;20.30;66.80;;;;;;485056;245;1063;-45
2021/07/21 03:01:52;;;;;;;;;;;20.30;66.80;;;;;;484953;245;1305;-45
2021/07/21 03:03:54;;;;;;;;;;;20.30;66.90;;;;;;485009;245;2144;-45
2021/07/21 03:05:55;;;;;;;;;;;20.30;66.70;;;;;;485025;245;1309;-45
2021/07/21 03:07:56;;;;;;;;;;;20.30;66.80;;;;;;484594;245;1136;-45
2021/07/21 03:09:57;;;;;;;;;;;20.40;66.80;;;;;;485010;245;1235;-45
2021/07/21 03:11:59;;;;;;;;;;;20.30;66.80;;;;;;484782;245;1283;-45
2021/07/21 03:14:00;;;;;;;;;;;20.30;66.80;;;;;;485101;245;1093;-45
2021/07/21 03:16:01;;;;;;;;;;;20.30;66.80;;;;;;484921;245;1159;-45
2021/07/21 03:18:03;;;;;;;;;;;20.30;66.80;;;;;;484770;245;1243;-45
2021/07/21 03:20:04;;;;;;;;;;;20.30;66.80;;;;;;484886;245;1098;-45
2021/07/21 03:22:05;;;;;;;;;;;20.30;66.70;;;;;;484739;245;1256;-45
2021/07/21 03:24:07;;;;;;;;;;;20.30;66.70;;;;;;484620;245;2149;-45
2021/07/21 03:26:08;;;;;;;;;;;20.40;66.80;;;;;;484650;245;1156;-45
2021/07/21 03:28:09;;;;;;;;;;;20.30;66.70;;;;;;484633;245;1099;-45
2021/07/21 03:30:11;;;;;;;;;;;20.40;66.70;;;;;;484669;245;1081;-45
2021/07/21 03:32:12;;;;;;;;;;;20.30;66.80;;;;;;484975;245;1171;-45
2021/07/21 03:34:13;;;;;;;;;;;20.30;66.80;;;;;;484624;245;1119;-45
2021/07/21 03:36:15;;;;;;;;;;;20.30;66.80;;;;;;484720;245;1744;-45
2021/07/21 03:38:16;;;;;;;;;;;20.30;66.70;;;;;;484583;245;1165;-45
2021/07/21 03:40:18;;;;;;;;;;;20.30;66.80;;;;;;485016;245;1053;-45
2021/07/21 03:42:19;;;;;;;;;;;20.40;66.70;;;;;;484604;245;1247;-45
2021/07/21 03:44:21;;;;;;;;;;;20.40;66.70;;;;;;485124;245;2144;-46
2021/07/21 03:46:22;;;;;;;;;;;20.30;66.80;;;;;;484668;245;1416;-45
2021/07/21 03:48:24;;;;;;;;;;;20.30;66.70;;;;;;484791;245;1183;-45
2021/07/21 03:50:25;;;;;;;;;;;20.30;66.80;;;;;;485035;245;1601;-45
2021/07/21 03:52:26;;;;;;;;;;;20.30;66.80;;;;;;484501;245;1227;-45
2021/07/21 03:54:28;;;;;;;;;;;20.40;66.70;;;;;;484480;245;1101;-45
2021/07/21 03:56:29;;;;;;;;;;;20.40;66.80;;;;;;484840;245;1188;-45
2021/07/21 03:58:30;;;;;;;;;;;20.40;66.80;;;;;;484958;245;1099;-45
2021/07/21 04:00:31;;;;;;;;;;;20.40;66.80;;;;;;485079;245;1082;-45
2021/07/21 04:02:33;;;;;;;;;;;20.40;66.70;;;;;;484564;245;1208;-45
2021/07/21 04:04:34;;;;;;;;;;;20.30;66.70;;;;;;484680;245;2207;-45
2021/07/21 04:06:35;;;;;;;;;;;20.30;66.70;;;;;;484612;245;1223;-45
2021/07/21 04:08:38;;;;;;;;;;;20.30;66.70;;;;;;484673;245;1084;-45
2021/07/21 04:10:38;;;;;;;;;;;20.40;66.70;;;;;;484634;245;2257;-45
2021/07/21 04:12:39;;;;;;;;;;;20.40;66.80;;;;;;484592;245;1189;-45
2021/07/21 04:14:41;;;;;;;;;;;20.40;66.60;;;;;;485054;245;1060;-45
2021/07/21 04:16:42;;;;;;;;;;;20.30;66.70;;;;;;484504;245;1121;-45
2021/07/21 04:18:43;;;;;;;;;;;20.30;66.70;;;;;;484708;245;1184;-45
2021/07/21 04:20:45;;;;;;;;;;;20.40;66.80;;;;;;485016;245;1151;-45
2021/07/21 04:22:46;;;;;;;;;;;20.30;66.80;;;;;;484510;245;1253;-45
2021/07/21 04:24:47;;;;;;;;;;;20.40;66.80;;;;;;484772;245;2191;-45
2021/07/21 04:26:49;;;;;;;;;;;20.40;66.70;;;;;;484539;245;1423;-45
2021/07/21 04:28:50;;;;;;;;;;;20.30;66.70;;;;;;484641;245;1149;-45
2021/07/21 04:30:51;;;;;;;;;;;20.30;66.80;;;;;;484692;245;1471;-45
2021/07/21 04:32:53;;;;;;;;;;;20.30;66.80;;;;;;484940;245;1293;-45
2021/07/21 04:34:54;;;;;;;;;;;20.30;66.70;;;;;;484524;245;1065;-45
2021/07/21 04:36:55;;;;;;;;;;;20.40;66.70;;;;;;484584;245;1314;-45
2021/07/21 04:38:56;;;;;;;;;;;20.30;66.80;;;;;;484952;245;1085;-45
2021/07/21 04:40:58;;;;;;;;;;;20.30;66.80;;;;;;484470;245;1193;-45
2021/07/21 04:43:00;;;;;;;;;;;20.30;66.90;;;;;;484473;245;2018;-45
2021/07/21 04:45:00;;;;;;;;;;;20.30;66.80;;;;;;484494;245;2144;-45
2021/07/21 04:47:02;;;;;;;;;;;20.30;66.80;;;;;;484482;245;1213;-45
2021/07/21 04:49:03;;;;;;;;;;;20.30;66.80;;;;;;484596;245;1218;-45
2021/07/21 04:51:04;;;;;;;;;;;20.30;66.80;;;;;;484766;245;1291;-45
2021/07/21 04:53:06;;;;;;;;;;;20.30;66.80;;;;;;484343;245;1233;-45
2021/07/21 04:55:07;;;;;;;;;;;20.30;66.70;;;;;;484525;245;1044;-45
2021/07/21 04:57:10;;;;;;;;;;;20.30;66.80;;;;;;484539;245;1274;-45
2021/07/21 04:59:10;;;;;;;;;;;20.30;66.80;;;;;;484428;246;1376;-45
2021/07/21 05:01:11;;;;;;;;;;;20.30;66.80;;;;;;484406;245;1169;-45
2021/07/21 05:03:12;;;;;;;;;;;20.30;66.70;;;;;;484447;245;1197;-45
2021/07/21 05:05:14;;;;;;;;;;;20.40;66.70;;;;;;484518;245;2148;-45
2021/07/21 05:07:16;;;;;;;;;;;20.30;66.80;;;;;;484422;245;1178;-45
2021/07/21 05:09:16;;;;;;;;;;;20.30;66.70;;;;;;484409;245;1891;-45
2021/07/21 05:11:18;;;;;;;;;;;20.30;66.70;;;;;;484359;245;1247;-45
2021/07/21 05:13:20;;;;;;;;;;;20.30;66.80;;;;;;484465;245;1181;-45
2021/07/21 05:15:20;;;;;;;;;;;20.30;66.80;;;;;;484339;245;1457;-45
2021/07/21 05:17:22;;;;;;;;;;;20.30;66.90;;;;;;484398;245;1231;-45
2021/07/21 05:19:23;;;;;;;;;;;20.30;66.90;;;;;;484306;245;1122;-45
2021/07/21 05:21:24;;;;;;;;;;;20.30;66.80;;;;;;484357;245;1512;-45
2021/07/21 05:23:26;;;;;;;;;;;20.30;66.80;;;;;;484409;245;1333;-45
2021/07/21 05:25:27;;;;;;;;;;;20.30;66.90;;;;;;484298;245;2144;-45
2021/07/21 05:27:28;;;;;;;;;;;20.30;66.90;;;;;;484350;245;1231;-45
2021/07/21 05:29:30;;;;;;;;;;;20.30;66.90;;;;;;484481;245;1091;-45
2021/07/21 05:31:31;;;;;;;;;;;20.30;66.90;;;;;;484320;245;1358;-45
2021/07/21 05:33:32;;;;;;;;;;;20.30;66.80;;;;;;484331;245;1218;-45
2021/07/21 05:35:34;;;;;;;;;;;20.30;66.80;;;;;;484310;245;1265;-45
2021/07/21 05:37:35;;;;;;;;;;;20.30;66.80;;;;;;484530;245;1236;-45
2021/07/21 05:39:36;;;;;;;;;;;20.30;66.70;;;;;;484520;245;1188;-45
2021/07/21 05:41:38;;;;;;;;;;;20.30;66.70;;;;;;484434;245;1155;-45
2021/07/21 05:43:39;;;;;;;;;;;20.30;66.80;;;;;;484333;245;1168;-45
2021/07/21 05:45:40;;;;;;;;;;;20.30;66.70;;;;;;484240;245;2144;-45
2021/07/21 05:47:42;;;;;;;;;;;20.30;66.80;;;;;;484182;245;1547;-45
2021/07/21 05:49:43;;;;;;;;;;;20.30;66.70;;;;;;484179;245;1549;-44
2021/07/21 05:51:44;;;;;;;;;;;20.30;66.70;;;;;;484251;245;1258;-45
2021/07/21 05:53:46;;;;;;;;;;;20.30;66.80;;;;;;484376;245;1216;-45
2021/07/21 05:55:47;;;;;;;;;;;20.30;66.70;;;;;;484182;245;1195;-45
2021/07/21 05:57:48;;;;;;;;;;;20.40;66.70;;;;;;484221;245;1178;-45
2021/07/21 05:59:49;;;;;;;;;;;20.30;66.70;;;;;;484380;245;1099;-45
2021/07/21 06:01:51;;;;;;;;;;;20.30;66.80;;;;;;484126;245;1265;-45
2021/07/21 06:03:52;;;;;;;;;;;20.30;66.80;;;;;;483992;245;1176;-45
2021/07/21 06:05:53;;;;;;;;;;;20.30;66.90;;;;;;484116;245;2148;-45
2021/07/21 06:07:56;;;;;;;;;;;20.30;66.80;;;;;;483984;245;1090;-45
2021/07/21 06:09:57;;;;;;;;;;;20.30;66.90;;;;;;484136;245;1111;-45
2021/07/21 06:11:59;;;;;;;;;;;20.30;66.90;;;;;;483757;245;1526;-45
2021/07/21 06:14:01;;;;;;;;;;;20.30;66.90;;;;;;483999;245;1493;-45
2021/07/21 06:16:06;;;;;;;;;;;20.30;66.90;;;;;;483969;245;1946;-45
2021/07/21 06:18:05;;;;;;;;;;;20.30;66.80;;;;;;484073;246;1508;-45
2021/07/21 06:20:06;;;;;;;;;;;20.30;66.90;;;;;;484047;245;1097;-45
2021/07/21 06:22:07;;;;;;;;;;;20.30;66.90;;;;;;483943;245;1176;-45
2021/07/21 06:24:09;;;;;;;;;;;20.30;66.80;;;;;;484355;245;1176;-45
2021/07/21 06:26:10;;;;;;;;;;;20.30;66.80;;;;;;483921;245;2184;-45
2021/07/21 06:28:11;;;;;;;;;;;20.30;66.80;;;;;;483956;245;1154;-45
2021/07/21 06:30:13;;;;;;;;;;;20.30;66.80;;;;;;484059;245;1090;-45
2021/07/21 06:32:14;;;;;;;;;;;20.30;66.80;;;;;;483978;245;1262;-45
2021/07/21 06:34:15;;;;;;;;;;;20.30;66.80;;;;;;484000;245;1312;-45
2021/07/21 06:36:17;;;;;;;;;;;20.30;66.90;;;;;;484229;245;1325;-45
2021/07/21 06:38:18;;;;;;;;;;;20.30;67.00;;;;;;483950;245;1155;-45
2021/07/21 06:40:20;;;;;;;;;;;20.30;66.90;;;;;;484165;245;1254;-45
2021/07/21 06:42:21;;;;;;;;;;;20.30;66.80;;;;;;484127;245;1185;-45
2021/07/21 06:44:22;;;;;;;;;;;20.30;66.80;;;;;;484364;245;888;-45
2021/07/21 06:46:23;;;;;;;;;;;20.30;66.80;;;;;;484062;245;2175;-45
2021/07/21 06:48:25;;;;;;;;;;;20.30;66.80;;;;;;484189;245;1219;-45
2021/07/21 06:50:27;;;;;;;;;;;20.30;66.80;;;;;;484025;245;1258;-45
2021/07/21 06:52:28;;;;;;;;;;;20.30;66.80;;;;;;483854;245;1292;-45
2021/07/21 06:54:29;;;;;;;;;;;20.30;66.90;;;;;;483848;245;1176;-45
2021/07/21 06:56:30;;;;;;;;;;;20.30;66.90;;;;;;484025;245;1330;-45
2021/07/21 06:58:32;;;;;;;;;;;20.30;66.80;;;;;;484140;245;1287;-45
2021/07/21 07:00:33;;;;;;;;;;;20.30;66.90;;;;;;483830;245;1323;-45
2021/07/21 07:02:34;;;;;;;;;;;20.30;66.80;;;;;;483691;245;1195;-45
2021/07/21 07:04:35;;;;;;;;;;;20.30;66.80;;;;;;483838;245;1222;-45
2021/07/21 07:06:37;;;;;;;;;;;20.30;66.80;;;;;;483629;245;2183;-45
2021/07/21 07:08:39;;;;;;;;;;;20.30;66.80;;;;;;483629;245;1177;-45
2021/07/21 07:10:40;;;;;;;;;;;20.30;66.80;;;;;;483274;245;1187;-45
2021/07/21 07:12:41;;;;;;;;;;;20.30;66.80;;;;;;483595;245;1315;-45
2021/07/21 07:14:42;;;;;;;;;;;20.30;66.90;;;;;;484428;245;922;-45
2021/07/21 07:16:44;;;;;;;;;;;20.30;66.90;;;;;;483930;245;1401;-45
2021/07/21 07:18:45;;;;;;;;;;;20.20;66.90;;;;;;484207;245;851;-45
2021/07/21 07:20:46;;;;;;;;;;;20.30;66.90;;;;;;484342;245;1227;-45
2021/07/21 07:22:48;;;;;;;;;;;20.30;66.90;;;;;;483816;245;1344;-45
2021/07/21 07:24:49;;;;;;;;;;;20.30;66.90;;;;;;483769;245;1135;-45
2021/07/21 07:26:50;;;;;;;;;;;20.30;66.80;;;;;;483791;245;2196;-45
2021/07/21 07:28:54;;;;;;;;;;;20.30;66.70;;;;;;484457;245;1176;-45
2021/07/21 07:30:53;;;;;;;;;;;20.40;66.70;;;;;;483994;245;1784;-45
2021/07/21 07:32:54;;;;;;;;;;;20.40;66.70;;;;;;484627;245;1055;-45
2021/07/21 07:34:56;;;;;;;;;;;20.40;66.70;;;;;;484209;245;1276;-45
2021/07/21 07:36:57;;;;;;;;;;;20.30;66.80;;;;;;484215;245;1093;-45
2021/07/21 07:38:58;;;;;;;;;;;20.30;66.80;;;;;;483605;245;1206;-45
2021/07/21 07:41:00;;;;;;;;;;;20.30;66.80;;;;;;483627;245;1333;-45
2021/07/21 07:43:01;;;;;;;;;;;20.30;66.70;;;;;;483700;245;1435;-45
2021/07/21 07:45:02;;;;;;;;;;;20.40;66.70;;;;;;483678;245;2148;-45
2021/07/21 07:47:04;;;;;;;;;;;20.30;66.70;;;;;;483987;245;1204;-45
2021/07/21 07:49:05;;;;;;;;;;;20.30;66.80;;;;;;484396;245;1120;-45
2021/07/21 07:51:07;;;;;;;;;;;20.30;66.80;;;;;;483791;245;1299;-45
2021/07/21 07:53:08;;;;;;;;;;;20.30;66.90;;;;;;484545;245;1084;-45
2021/07/21 07:55:09;;;;;;;;;;;20.30;66.90;;;;;;484600;245;902;-45
2021/07/21 07:57:11;;;;;;;;;;;20.30;66.80;;;;;;483900;245;1009;-46
2021/07/21 07:59:12;;;;;;;;;;;20.30;66.80;;;;;;484031;245;895;-45
2021/07/21 08:01:13;;;;;;;;;;;20.30;66.80;;;;;;484032;243;1084;-45
2021/07/21 08:03:15;;;;;;;;;;;20.30;66.80;;;;;;484585;245;843;-45
2021/07/21 08:05:16;;;;;;;;;;;20.30;66.80;;;;;;484234;245;2216;-45
2021/07/21 08:07:17;;;;;;;;;;;20.30;66.80;;;;;;483681;245;1228;-45
2021/07/21 08:09:19;;;;;;;;;;;20.30;66.80;;;;;;483698;245;1083;-45
2021/07/21 08:11:20;;;;;;;;;;;20.30;66.70;;;;;;483595;245;1210;-45
2021/07/21 08:13:22;;;;;;;;;;;20.30;66.80;;;;;;483624;245;1162;-45
2021/07/21 08:15:23;;;;;;;;;;;20.30;66.80;;;;;;483628;245;1095;-45
2021/07/21 08:17:24;;;;;;;;;;;20.40;66.70;;;;;;483483;245;1137;-45
2021/07/21 08:19:26;;;;;;;;;;;20.30;66.70;;;;;;483465;245;1129;-45
2021/07/21 08:21:27;;;;;;;;;;;20.30;66.80;;;;;;483474;245;1321;-45
2021/07/21 08:23:28;;;;;;;;;;;20.30;66.80;;;;;;483776;245;1054;-45
2021/07/21 08:25:29;;;;;;;;;;;20.30;66.60;;;;;;483742;245;2128;-45
2021/07/21 08:27:31;;;;;;;;;;;20.40;66.70;;;;;;483657;245;1234;-45
2021/07/21 08:29:32;;;;;;;;;;;20.30;66.60;;;;;;483585;245;1119;-45
2021/07/21 08:31:33;;;;;;;;;;;20.40;66.70;;;;;;483583;245;1166;-45
2021/07/21 08:33:35;;;;;;;;;;;20.40;66.70;;;;;;483701;245;1137;-45
2021/07/21 08:35:36;;;;;;;;;;;20.30;66.60;;;;;;483618;245;1182;-45
2021/07/21 08:37:38;;;;;;;;;;;20.40;66.70;;;;;;483536;245;1118;-45
2021/07/21 08:39:39;;;;;;;;;;;20.30;66.70;;;;;;483729;245;1103;-45
2021/07/21 08:41:40;;;;;;;;;;;20.30;66.70;;;;;;483588;245;1156;-45
2021/07/21 08:43:41;;;;;;;;;;;20.30;66.80;;;;;;483677;245;1186;-45
2021/07/21 08:45:43;;;;;;;;;;;20.40;66.70;;;;;;483701;245;2179;-45
2021/07/21 08:47:44;;;;;;;;;;;20.30;66.60;;;;;;483812;245;1220;-45
2021/07/21 08:49:45;;;;;;;;;;;20.40;66.60;;;;;;483744;245;1110;-45
2021/07/21 08:51:47;;;;;;;;;;;20.40;66.70;;;;;;483565;245;1271;-45
2021/07/21 08:53:48;;;;;;;;;;;20.40;66.60;;;;;;483525;245;1456;-45
2021/07/21 08:55:49;;;;;;;;;;;20.40;66.60;;;;;;483535;245;1357;-45
2021/07/21 08:57:51;;;;;;;;;;;20.40;66.70;;;;;;483429;245;1283;-45
2021/07/21 08:59:52;;;;;;;;;;;20.30;66.70;;;;;;483530;245;1221;-45
2021/07/21 09:01:53;;;;;;;;;;;20.30;66.70;;;;;;483638;245;1298;-45
2021/07/21 09:03:55;;;;;;;;;;;20.30;66.70;;;;;;483527;245;1522;-45
2021/07/21 09:05:56;;;;;;;;;;;20.40;66.80;;;;;;483264;245;2199;-45
2021/07/21 09:07:57;;;;;;;;;;;20.30;66.70;;;;;;483516;245;1192;-45
2021/07/21 09:09:59;;;;;;;;;;;20.30;66.70;;;;;;483564;245;1211;-45
2021/07/21 09:12:00;;;;;;;;;;;20.30;66.70;;;;;;483540;245;1339;-45
2021/07/21 09:14:01;;;;;;;;;;;20.30;66.70;;;;;;483662;245;1079;-45
2021/07/21 09:16:03;;;;;;;;;;;20.30;66.80;;;;;;483653;245;1196;-45
2021/07/21 09:18:05;;;;;;;;;;;20.40;66.80;;;;;;483528;245;1342;-45
2021/07/21 09:20:06;;;;;;;;;;;20.30;66.80;;;;;;483536;245;1118;-45
2021/07/21 09:22:07;;;;;;;;;;;20.30;66.80;;;;;;483438;245;1216;-45
2021/07/21 09:24:10;;;;;;;;;;;20.30;66.70;;;;;;483682;245;1440;-45
2021/07/21 09:26:11;;;;;;;;;;;20.30;66.70;;;;;;483717;245;2184;-45
2021/07/21 09:28:12;;;;;;;;;;;20.30;66.70;;;;;;483539;245;1257;-45
2021/07/21 09:30:13;;;;;;;;;;;20.40;66.70;;;;;;483832;245;1128;-45
2021/07/21 09:32:15;;;;;;;;;;;20.40;66.60;;;;;;483447;245;1188;-45
2021/07/21 09:34:16;;;;;;;;;;;20.30;66.70;;;;;;483623;245;1127;-45
2021/07/21 09:36:18;;;;;;;;;;;20.30;66.60;;;;;;483566;245;1387;-45
2021/07/21 09:38:19;;;;;;;;;;;20.30;66.70;;;;;;483745;245;1301;-45
2021/07/21 09:40:21;;;;;;;;;;;20.30;66.70;;;;;;483869;245;1185;-45
2021/07/21 09:42:22;;;;;;;;;;;20.30;66.70;;;;;;483780;245;1190;-45
2021/07/21 09:44:23;;;;;;;;;;;20.40;66.70;;;;;;484484;245;875;-45
2021/07/21 09:46:24;;;;;;;;;;;20.30;66.70;;;;;;484012;245;2187;-45
2021/07/21 09:48:26;;;;;;;;;;;20.40;66.70;;;;;;484521;245;1093;-45
2021/07/21 09:50:28;;;;;;;;;;;20.40;66.70;;;;;;484460;245;930;-45
2021/07/21 09:52:28;;;;;;;;;;;20.40;66.60;;;;;;484039;245;2197;-45
2021/07/21 09:54:30;;;;;;;;;;;20.30;66.60;;;;;;484096;245;859;-45
2021/07/21 09:56:31;;;;;;;;;;;20.40;66.70;;;;;;484008;245;1099;-45
2021/07/21 09:58:34;;;;;;;;;;;20.30;66.70;;;;;;484490;245;1019;-45
2021/07/21 10:00:34;;;;;;;;;;;20.40;66.70;;;;;;484503;245;1315;-45
2021/07/21 10:02:35;;;;;;;;;;;20.40;66.70;;;;;;484469;245;1077;-44
2021/07/21 10:04:37;;;;;;;;;;;20.30;66.70;;;;;;484519;245;851;-45
2021/07/21 10:06:38;;;;;;;;;;;20.30;66.70;;;;;;483878;245;2195;-45
2021/07/21 10:08:40;;;;;;;;;;;20.30;66.70;;;;;;484037;245;1126;-45
2021/07/21 10:10:41;;;;;;;;;;;20.30;66.70;;;;;;484030;245;2161;-45
2021/07/21 10:12:42;;;;;;;;;;;20.40;66.70;;;;;;484086;245;1041;-45
2021/07/21 10:14:43;;;;;;;;;;;20.40;66.60;;;;;;484537;245;864;-45
2021/07/21 10:16:44;;;;;;;;;;;20.40;66.50;;;;;;484537;245;1196;-45
2021/07/21 10:18:46;;;;;;;;;;;20.40;66.60;;;;;;483989;245;1106;-45
2021/07/21 10:20:47;;;;;;;;;;;20.20;66.80;;;;;;483484;245;1337;-45
2021/07/21 10:22:48;;;;;;;;;;;20.20;67.10;;;;;;483670;245;1252;-45
2021/07/21 10:24:50;;;;;;;;;;;20.20;67.30;;;;;;483759;245;1089;-45
2021/07/21 10:26:51;;;;;;;;;;;20.20;67.20;;;;;;483660;245;2148;-45
2021/07/21 10:28:52;;;;;;;;;;;20.10;67.40;;;;;;483573;245;1146;-45
2021/07/21 10:30:54;;;;;;;;;;;20.10;67.50;;;;;;483462;245;1349;-45
2021/07/21 10:32:56;;;;;;;;;;;20.10;67.50;;;;;;484094;245;1085;-45
2021/07/21 10:34:57;;;;;;;;;;;20.10;67.40;;;;;;484242;245;864;-45
2021/07/21 10:36:58;;;;;;;;;;;20.20;67.30;;;;;;484103;245;1385;-45
2021/07/21 10:39:00;;;;;;;;;;;20.20;67.10;;;;;;484162;245;1124;-45
2021/07/21 10:41:01;;;;;;;;;;;20.20;67.00;;;;;;483862;245;1233;-45
2021/07/21 10:43:02;;;;;;;;;;;20.30;66.90;;;;;;483841;245;1212;-45
2021/07/21 10:45:04;;;;;;;;;;;20.30;66.80;;;;;;483648;245;1270;-45
2021/07/21 10:47:05;;;;;;;;;;;20.30;66.90;;;;;;483744;245;2195;-45
2021/07/21 10:49:06;;;;;;;;;;;20.30;66.90;;;;;;484431;245;1111;-44
2021/07/21 10:51:12;;;;;;;;;;;20.30;66.80;;;;;;484448;245;1125;-45
2021/07/21 10:53:09;;;;;;;;;;;20.30;66.80;;;;;;483713;246;3537;-45
2021/07/21 10:55:15;;;;;;;;;;;20.30;66.60;;;;;;484522;245;952;-45
2021/07/21 10:59:31;;;;;;;;;;;20.30;66.70;;;;;;484560;246;1126;-45
2021/07/21 11:01:32;;;;;;;;;;;20.30;66.70;;;;;;483952;245;1135;-45
2021/07/21 11:03:33;;;;;;;;;;;20.30;66.70;;;;;;483954;245;1134;-45
2021/07/21 11:05:35;;;;;;;;;;;20.30;66.70;;;;;;483866;245;1211;-45
2021/07/21 11:07:36;;;;;;;;;;;20.30;66.70;;;;;;484227;245;2188;-45
2021/07/21 11:09:39;;;;;;;;;;;20.40;66.60;;;;;;484482;245;903;-45
2021/07/21 11:11:39;;;;;;;;;;;20.30;66.60;;;;;;484357;245;2057;-45
2021/07/21 11:13:40;;;;;;;;;;;20.30;66.70;;;;;;484424;245;865;-45
2021/07/21 11:15:41;;;;;;;;;;;20.30;66.50;;;;;;483907;245;1138;-45
2021/07/21 11:17:42;;;;;;;;;;;20.40;66.60;;;;;;483995;245;1919;-45
2021/07/21 11:19:44;;;;;;;;;;;20.30;66.60;;;;;;484482;245;1270;-45
2021/07/21 11:21:45;;;;;;;;;;;20.30;66.70;;;;;;483925;245;1166;-45
2021/07/21 11:23:46;;;;;;;;;;;20.50;66.30;;;;;;484113;245;1084;-45
2021/07/21 11:25:48;;;;;;;;;;;20.40;66.40;;;;;;484440;245;1231;-45
2021/07/21 11:27:51;;;;;;;;;;;20.40;66.60;;;;;;483945;245;2215;-45
2021/07/21 11:29:51;;;;;;;;;;;20.40;66.50;;;;;;483933;246;1798;-45
2021/07/21 11:31:52;;;;;;;;;;;20.40;66.50;;;;;;484420;245;1149;-45
2021/07/21 11:33:55;;;;;;;;;;;20.40;66.30;;;;;;484499;245;1074;-45
2021/07/21 11:35:56;;;;;;;;;;;20.50;66.20;;;;;;484575;245;1162;-45
2021/07/21 11:37:58;;;;;;;;;;;20.50;66.30;;;;;;483709;245;1273;-45
2021/07/21 11:39:59;;;;;;;;;;;20.50;66.30;;;;;;483817;245;1110;-45
2021/07/21 11:42:00;;;;;;;;;;;20.40;66.20;;;;;;483575;245;1303;-45
2021/07/21 11:44:02;;;;;;;;;;;20.40;66.30;;;;;;483590;245;1280;-45
2021/07/21 11:46:03;;;;;;;;;;;20.50;66.30;;;;;;483770;245;1185;-45
2021/07/21 11:48:06;;;;;;;;;;;20.50;66.30;;;;;;483590;245;2187;-45
2021/07/21 11:50:06;;;;;;;;;;;20.50;66.20;;;;;;483627;246;2294;-45
2021/07/21 11:52:07;;;;;;;;;;;20.50;66.20;;;;;;483498;245;1220;-44
2021/07/21 11:54:08;;;;;;;;;;;20.50;66.10;;;;;;483556;245;1317;-45
2021/07/21 11:56:10;;;;;;;;;;;20.50;66.00;;;;;;483516;245;1196;-45
2021/07/21 11:58:11;;;;;;;;;;;20.50;66.10;;;;;;483635;245;1180;-45
2021/07/21 12:00:13;;;;;;;;;;;20.50;66.10;;;;;;483735;245;1209;-45
2021/07/21 12:02:14;;;;;;;;;;;20.60;66.10;;;;;;483701;245;1209;-45